createdAt,value
2022-12-23T00:00:42.045Z,62.45
2022-12-23T00:03:09.820Z,68.15
2022-12-23T00:05:38.652Z,58.90
2022-12-23T00:08:06.843Z,65.37
2022-12-23T00:10:37.720Z,65.85
2022-12-23T00:13:23.765Z,65.75
2022-12-23T00:15:51.275Z,61.30
2022-12-23T00:18:18.483Z,62.80
2022-12-23T00:20:45.599Z,66.62
2022-12-23T00:23:13.063Z,61.67
2022-12-23T00:25:42.256Z,66.78
2022-12-23T00:28:15.753Z,67.32
2022-12-23T00:30:59.936Z,65.57
2022-12-23T00:33:29.672Z,54.90
2022-12-23T00:35:57.538Z,62.08
2022-12-23T00:38:44.475Z,66.72
2022-12-23T00:41:35.404Z,57.60
2022-12-23T00:44:03.648Z,65.55
2022-12-23T00:46:31.772Z,58.30
2022-12-23T00:49:17.576Z,64.85
2022-12-23T00:51:44.944Z,62.08
2022-12-23T00:54:11.999Z,56.03
2022-12-23T00:56:39.118Z,59.58
2022-12-23T00:59:06.709Z,62.97
2022-12-23T01:01:52.616Z,48.65
2022-12-23T01:04:39.209Z,68.07
2022-12-23T01:07:06.484Z,55.55
2022-12-23T01:09:34.548Z,70.30
2022-12-23T01:12:01.683Z,63.83
2022-12-23T01:14:29.308Z,64.53
2022-12-23T01:16:56.827Z,58.95
2022-12-23T01:19:24.051Z,60.12
2022-12-23T01:21:51.154Z,62.28
2022-12-23T01:24:18.570Z,59.38
2022-12-23T01:26:45.678Z,67.50
2022-12-23T01:29:12.789Z,59.90
2022-12-23T01:31:40.365Z,63.53
2022-12-23T01:34:07.504Z,60.15
2022-12-23T01:36:34.559Z,59.53
2022-12-23T01:39:01.968Z,55.20
2022-12-23T01:41:50.154Z,66.25
2022-12-23T01:44:56.010Z,64.37
2022-12-23T01:47:41.322Z,56.72
2022-12-23T01:50:17.515Z,58.33
2022-12-23T01:52:52.042Z,57.92
2022-12-23T01:55:23.633Z,56.72
2022-12-23T01:57:51.935Z,53.83
2022-12-23T02:00:37.991Z,47.67
2022-12-23T02:03:23.803Z,53.92
2022-12-23T02:05:51.854Z,57.62
2022-12-23T02:08:38.675Z,57.55
2022-12-23T02:11:39.782Z,56.58
2022-12-23T02:14:52.323Z,65.90
2022-12-23T02:17:32.843Z,58.28
2022-12-23T02:20:47.130Z,61.65
2022-12-23T02:23:32.729Z,61.05
2022-12-23T02:26:05.801Z,56.35
2022-12-23T02:29:00.768Z,55.17
2022-12-23T02:31:37.094Z,60.80
2022-12-23T02:34:19.849Z,60.40
2022-12-23T02:36:59.835Z,53.28
2022-12-23T02:39:51.742Z,71.78
2022-12-23T02:42:24.113Z,69.20
2022-12-23T02:45:21.922Z,78.28
2022-12-23T02:48:08.286Z,70.28
2022-12-23T02:50:38.382Z,83.37
2022-12-23T02:53:16.040Z,78.80
2022-12-23T02:55:44.556Z,86.53
2022-12-23T02:58:13.562Z,81.63
2022-12-23T03:00:42.070Z,74.62
2022-12-23T03:03:09.865Z,75.90
2022-12-23T03:05:40.580Z,82.15
2022-12-23T03:08:19.822Z,79.35
2022-12-23T03:11:02.673Z,67.68
2022-12-23T03:13:38.420Z,69.07
2022-12-23T03:16:22.935Z,72.47
2022-12-23T03:19:11.920Z,73.82
2022-12-23T03:21:57.807Z,69.78
2022-12-23T03:24:32.846Z,72.80
2022-12-23T03:27:06.564Z,71.28
2022-12-23T03:30:06.643Z,81.37
2022-12-23T03:33:13.929Z,75.37
2022-12-23T03:35:45.810Z,75.62
2022-12-23T03:38:15.302Z,79.82
2022-12-23T03:40:45.331Z,86.68
2022-12-23T03:44:02.194Z,66.70
2022-12-23T03:46:37.192Z,86.22
2022-12-23T03:49:07.978Z,86.55
2022-12-23T03:51:48.379Z,67.68
2022-12-23T03:54:20.664Z,82.93
2022-12-23T03:56:55.058Z,59.28
2022-12-23T03:59:28.568Z,61.08
2022-12-23T04:02:01.567Z,56.85
2022-12-23T04:04:48.030Z,63.03
2022-12-23T04:07:57.008Z,62.62
2022-12-23T04:10:25.071Z,66.82
2022-12-23T04:12:52.753Z,53.90
2022-12-23T04:15:24.759Z,53.50
2022-12-23T04:17:53.466Z,51.17
2022-12-23T04:20:20.966Z,51.13
2022-12-23T04:22:48.548Z,58.22
2022-12-23T04:25:17.084Z,57.38
2022-12-23T04:27:44.528Z,42.50
2022-12-23T04:30:13.826Z,61.85
2022-12-23T04:32:41.738Z,57.15
2022-12-23T04:35:09.571Z,52.42
2022-12-23T04:37:37.143Z,46.65
2022-12-23T04:40:05.352Z,48.08
2022-12-23T04:42:32.525Z,56.28
2022-12-23T04:44:59.698Z,54.78
2022-12-23T04:47:27.162Z,57.00
2022-12-23T04:49:54.320Z,49.90
2022-12-23T04:52:21.710Z,56.17
2022-12-23T04:54:49.156Z,46.55
2022-12-23T04:57:16.573Z,40.70
2022-12-23T04:59:43.806Z,42.15
2022-12-23T05:02:11.427Z,53.67
2022-12-23T05:04:38.741Z,50.33
2022-12-23T05:07:05.913Z,46.85
2022-12-23T05:09:33.342Z,38.78
2022-12-23T05:12:00.517Z,45.90
2022-12-23T05:14:27.736Z,43.80
2022-12-23T05:16:55.220Z,50.10
2022-12-23T05:19:22.516Z,47.75
2022-12-23T05:21:49.644Z,53.25
2022-12-23T05:24:17.097Z,45.40
2022-12-23T05:26:48.418Z,52.92
2022-12-23T05:29:17.328Z,54.88
2022-12-23T05:31:44.584Z,50.33
2022-12-23T05:34:11.813Z,41.53
2022-12-23T05:36:39.293Z,54.03
2022-12-23T05:39:07.305Z,47.60
2022-12-23T05:41:34.445Z,43.30
2022-12-23T05:44:01.848Z,41.95
2022-12-23T05:46:29.070Z,44.90
2022-12-23T05:48:56.317Z,42.62
2022-12-23T05:51:23.761Z,37.90
2022-12-23T05:53:50.931Z,49.72
2022-12-23T05:56:18.139Z,39.55
2022-12-23T05:58:45.587Z,49.63
2022-12-23T06:01:12.716Z,43.00
2022-12-23T06:03:40.367Z,43.87
2022-12-23T06:06:07.690Z,38.35
2022-12-23T06:08:34.798Z,35.05
2022-12-23T06:11:05.037Z,34.58
2022-12-23T06:13:32.182Z,31.83
2022-12-23T06:15:59.371Z,37.20
2022-12-23T06:18:26.741Z,35.42
2022-12-23T06:20:53.820Z,41.28
2022-12-23T06:23:20.917Z,37.80
2022-12-23T06:25:48.277Z,39.95
2022-12-23T06:28:15.359Z,30.62
2022-12-23T06:30:42.444Z,35.35
2022-12-23T06:33:09.783Z,33.78
2022-12-23T06:35:36.916Z,35.35
2022-12-23T06:38:08.781Z,37.85
2022-12-23T06:40:39.396Z,38.28
2022-12-23T06:43:06.729Z,41.30
2022-12-23T06:45:33.932Z,46.60
2022-12-23T06:48:01.368Z,50.22
2022-12-23T06:50:28.544Z,42.97
2022-12-23T06:52:55.686Z,45.05
2022-12-23T06:55:23.130Z,55.12
2022-12-23T06:57:50.371Z,49.78
2022-12-23T07:00:17.760Z,47.00
2022-12-23T07:02:45.277Z,46.55
2022-12-23T07:05:12.516Z,48.42
2022-12-23T07:07:39.665Z,51.10
2022-12-23T07:10:07.802Z,39.88
2022-12-23T07:12:34.966Z,44.28
2022-12-23T07:15:02.075Z,42.95
2022-12-23T07:17:30.076Z,46.92
2022-12-23T07:19:57.288Z,45.53
2022-12-23T07:22:24.523Z,41.47
2022-12-23T07:24:51.967Z,40.05
2022-12-23T07:27:19.119Z,40.83
2022-12-23T07:29:46.272Z,42.28
2022-12-23T07:32:13.816Z,48.83
2022-12-23T07:34:40.965Z,52.55
2022-12-23T07:37:08.021Z,44.55
2022-12-23T07:39:35.366Z,56.13
2022-12-23T07:42:42.827Z,47.85
2022-12-23T07:44:49.951Z,46.05
2022-12-23T07:47:17.372Z,43.45
2022-12-23T07:49:44.564Z,42.67
2022-12-23T07:52:12.044Z,44.38
2022-12-23T07:54:40.900Z,52.67
2022-12-23T07:57:08.034Z,44.78
2022-12-23T07:59:35.466Z,45.83
2022-12-23T08:02:03.000Z,40.80
2022-12-23T08:04:30.624Z,51.58
2022-12-23T08:06:57.796Z,50.40
2022-12-23T08:09:24.987Z,58.42
2022-12-23T08:11:52.484Z,43.05
2022-12-23T08:14:19.832Z,38.53
2022-12-23T08:16:48.372Z,39.10
2022-12-23T08:19:15.924Z,32.20
2022-12-23T08:21:43.150Z,35.70
2022-12-23T08:24:10.223Z,37.03
2022-12-23T08:26:37.578Z,36.63
2022-12-23T08:29:04.660Z,36.50
2022-12-23T08:31:32.056Z,40.30
2022-12-23T08:34:00.745Z,38.75
2022-12-23T08:36:32.759Z,38.20
2022-12-23T08:39:02.384Z,39.95
2022-12-23T08:41:32.179Z,46.00
2022-12-23T08:43:59.842Z,47.70
2022-12-23T08:46:27.711Z,41.95
2022-12-23T08:48:55.085Z,39.25
2022-12-23T08:51:24.148Z,37.30
2022-12-23T08:53:57.889Z,46.15
2022-12-23T08:56:29.900Z,39.33
2022-12-23T08:58:57.216Z,42.45
2022-12-23T09:01:27.149Z,45.58
2022-12-23T09:03:55.291Z,57.05
2022-12-23T09:06:29.885Z,50.28
2022-12-23T09:08:58.595Z,44.35
2022-12-23T09:11:27.517Z,45.83
2022-12-23T09:13:55.217Z,42.58
2022-12-23T09:16:23.013Z,41.53
2022-12-23T09:18:50.175Z,59.80
2022-12-23T09:21:22.682Z,41.72
2022-12-23T09:23:50.694Z,44.13
2022-12-23T09:26:26.375Z,46.42
2022-12-23T09:28:54.006Z,36.55
2022-12-23T09:31:22.155Z,40.97
2022-12-23T09:33:53.070Z,36.22
2022-12-23T09:36:22.048Z,33.67
2022-12-23T09:38:55.130Z,29.75
2022-12-23T09:41:35.562Z,37.58
2022-12-23T09:44:14.738Z,33.75
2022-12-23T09:46:49.148Z,41.05
2022-12-23T09:49:18.265Z,34.75
2022-12-23T09:51:47.329Z,41.95
2022-12-23T09:54:25.300Z,40.33
2022-12-23T09:56:56.472Z,39.45
2022-12-23T09:59:35.859Z,46.40
2022-12-23T10:02:22.129Z,40.92
2022-12-23T10:05:11.427Z,40.05
2022-12-23T10:07:55.209Z,37.95
2022-12-23T10:10:52.531Z,44.63
2022-12-23T10:13:26.653Z,43.65
2022-12-23T10:15:56.224Z,44.17
2022-12-23T10:18:47.902Z,59.50
2022-12-23T10:21:31.448Z,45.88
2022-12-23T10:24:02.422Z,49.83
2022-12-23T10:26:39.624Z,42.13
2022-12-23T10:29:19.726Z,47.38
2022-12-23T10:32:05.464Z,47.72
2022-12-23T10:34:44.750Z,51.58
2022-12-23T10:37:22.392Z,51.72
2022-12-23T10:40:11.081Z,49.38
2022-12-23T10:42:56.774Z,42.15
2022-12-23T10:45:26.808Z,44.50
2022-12-23T10:48:51.409Z,43.87
2022-12-23T10:51:28.407Z,49.92
2022-12-23T10:54:10.273Z,49.40
2022-12-23T10:56:37.563Z,46.10
2022-12-23T10:59:06.761Z,48.60
2022-12-23T11:01:34.402Z,47.95
2022-12-23T11:04:14.502Z,45.97
2022-12-23T11:06:46.659Z,51.63
2022-12-23T11:09:23.732Z,52.30
2022-12-23T11:12:02.202Z,43.05
2022-12-23T11:14:44.427Z,41.70
2022-12-23T11:17:21.120Z,49.65
2022-12-23T11:19:49.147Z,46.30
2022-12-23T11:22:25.252Z,44.15
2022-12-23T11:24:52.462Z,49.08
2022-12-23T11:27:19.896Z,49.20
2022-12-23T11:29:52.191Z,45.10
2022-12-23T11:32:25.780Z,52.72
2022-12-23T11:34:54.077Z,48.33
2022-12-23T11:37:37.319Z,42.90
2022-12-23T11:40:07.259Z,48.28
2022-12-23T11:42:34.926Z,67.95
2022-12-23T11:45:06.883Z,60.92
2022-12-23T11:47:41.363Z,51.03
2022-12-23T11:50:27.600Z,48.63
2022-12-23T11:53:12.230Z,52.55
2022-12-23T11:55:47.225Z,44.22
2022-12-23T11:58:21.433Z,49.97
2022-12-23T12:00:56.237Z,55.70
2022-12-23T12:03:27.913Z,54.55
2022-12-23T12:05:58.866Z,60.10
2022-12-23T12:08:36.111Z,55.75
2022-12-23T12:11:11.756Z,56.92
2022-12-23T12:13:44.491Z,69.55
2022-12-23T12:16:17.657Z,51.75
2022-12-23T12:18:51.940Z,54.40
2022-12-23T12:21:29.337Z,53.67
2022-12-23T12:26:51.124Z,50.30
2022-12-23T12:29:25.536Z,55.70
2022-12-23T12:31:55.492Z,49.40
2022-12-23T12:34:52.563Z,60.12
2022-12-23T12:37:30.183Z,57.80
2022-12-23T12:40:16.804Z,56.85
2022-12-23T12:42:53.236Z,56.42
2022-12-23T12:45:34.513Z,57.35
2022-12-23T12:48:21.090Z,59.75
2022-12-23T12:51:00.057Z,55.63
2022-12-23T12:53:28.785Z,60.53
2022-12-23T12:56:00.767Z,62.95
2022-12-23T12:58:27.997Z,63.95
2022-12-23T13:01:02.392Z,61.42
2022-12-23T13:03:54.856Z,64.10
2022-12-23T13:06:40.738Z,62.33
2022-12-23T13:09:26.529Z,68.87
2022-12-23T13:12:24.615Z,64.22
2022-12-23T13:15:13.015Z,61.33
2022-12-23T13:17:48.838Z,60.78
2022-12-23T13:21:03.354Z,73.35
2022-12-23T13:23:53.381Z,55.50
2022-12-23T13:26:20.424Z,67.28
2022-12-23T13:29:29.634Z,57.75
2022-12-23T13:32:12.467Z,66.85
2022-12-23T13:35:01.311Z,62.50
2022-12-23T13:37:43.165Z,63.03
2022-12-23T13:40:29.170Z,59.92
2022-12-23T13:43:00.341Z,61.10
2022-12-23T13:45:33.467Z,72.43
2022-12-23T13:48:29.542Z,62.62
2022-12-23T13:51:05.906Z,64.87
2022-12-23T13:53:35.776Z,67.25
2022-12-23T13:56:11.856Z,67.12
2022-12-23T13:58:42.328Z,65.28
2022-12-23T14:01:09.761Z,56.30
2022-12-23T14:03:39.097Z,69.90
2022-12-23T14:06:19.963Z,68.97
2022-12-23T14:08:47.783Z,63.90
2022-12-23T14:11:28.857Z,72.90
2022-12-23T14:14:01.323Z,74.53
2022-12-23T14:16:56.101Z,71.37
2022-12-23T14:22:29.310Z,63.40
2022-12-23T14:25:24.758Z,77.80
2022-12-23T14:27:56.746Z,78.18
2022-12-23T14:30:37.516Z,75.45
2022-12-23T14:33:14.784Z,74.95
2022-12-23T14:35:42.825Z,65.00
2022-12-23T14:38:16.034Z,68.00
2022-12-23T14:40:43.562Z,65.62
2022-12-23T14:43:23.258Z,81.82
2022-12-23T14:45:52.150Z,74.22
2022-12-23T14:48:34.544Z,72.05
2022-12-23T14:51:13.976Z,68.35
2022-12-23T14:54:02.145Z,71.40
2022-12-23T14:56:38.784Z,72.15
2022-12-23T14:59:21.093Z,77.05
2022-12-23T15:01:48.621Z,71.97
2022-12-23T15:04:19.466Z,74.10
2022-12-23T15:06:49.773Z,75.78
2022-12-23T15:09:29.306Z,72.87
2022-12-23T15:12:00.280Z,70.35
2022-12-23T15:14:44.809Z,80.40
2022-12-23T15:17:25.973Z,63.70
2022-12-23T15:19:54.293Z,78.70
2022-12-23T15:22:30.151Z,79.82
2022-12-23T15:24:59.632Z,78.93
2022-12-23T15:27:29.985Z,79.97
2022-12-23T15:29:57.809Z,78.18
2022-12-23T15:32:26.022Z,86.20
2022-12-23T15:34:57.940Z,75.55
2022-12-23T15:37:28.618Z,79.53
2022-12-23T15:40:04.898Z,76.12
2022-12-23T15:42:38.563Z,91.18
2022-12-23T15:45:24.174Z,95.50
2022-12-23T15:47:51.779Z,95.53
2022-12-23T15:50:19.819Z,94.00
2022-12-23T15:52:48.877Z,92.57
2022-12-23T15:55:28.713Z,79.30
2022-12-23T15:57:56.246Z,82.88
2022-12-23T16:00:25.199Z,87.40
2022-12-23T16:03:02.845Z,94.00
2022-12-23T16:05:36.106Z,97.25
2022-12-23T16:08:29.857Z,98.85
2022-12-23T16:11:24.154Z,121.00
2022-12-23T16:14:00.324Z,124.72
2022-12-23T16:16:38.390Z,122.60
2022-12-23T16:19:06.737Z,148.05
2022-12-23T16:21:35.743Z,139.15
2022-12-23T16:24:08.155Z,174.50
2022-12-23T16:26:41.805Z,134.95
2022-12-23T16:29:09.752Z,167.80
2022-12-23T16:31:37.420Z,153.52
2022-12-23T16:34:07.543Z,142.52
2022-12-23T16:36:37.748Z,138.77
2022-12-23T16:39:17.485Z,138.98
2022-12-23T16:41:44.898Z,124.00
2022-12-23T16:44:12.287Z,150.43
2022-12-23T16:46:43.080Z,144.50
2022-12-23T16:49:16.156Z,120.13
2022-12-23T16:51:43.637Z,139.93
2022-12-23T16:54:19.320Z,112.82
2022-12-23T16:56:46.904Z,90.43
2022-12-23T16:59:14.549Z,101.45
2022-12-23T17:01:48.750Z,92.35
2022-12-23T17:04:16.209Z,77.30
2022-12-23T17:06:43.321Z,94.85
2022-12-23T17:09:10.557Z,91.82
2022-12-23T17:11:47.180Z,113.22
2022-12-23T17:14:18.696Z,116.97
2022-12-23T17:16:46.572Z,142.43
2022-12-23T17:19:13.916Z,193.23
2022-12-23T17:21:42.654Z,159.25
2022-12-23T17:24:25.089Z,209.23
2022-12-23T17:26:52.826Z,186.75
2022-12-23T17:29:20.396Z,160.63
2022-12-23T17:31:49.060Z,179.02
2022-12-23T17:34:18.446Z,144.45
2022-12-23T17:36:49.874Z,144.13
2022-12-23T17:39:20.858Z,121.43
2022-12-23T17:41:51.532Z,184.37
2022-12-23T17:44:19.004Z,163.62
2022-12-23T17:46:46.664Z,170.32
2022-12-23T17:49:14.146Z,157.70
2022-12-23T17:51:41.878Z,114.25
2022-12-23T17:54:24.205Z,90.05
2022-12-23T17:56:53.457Z,94.65
2022-12-23T17:59:21.216Z,84.55
2022-12-23T18:01:48.384Z,70.10
2022-12-23T18:04:15.975Z,99.30
2022-12-23T18:06:43.071Z,98.78
2022-12-23T18:09:10.162Z,95.93
2022-12-23T18:11:44.179Z,80.22
2022-12-23T18:14:16.851Z,99.93
2022-12-23T18:16:44.235Z,144.00
2022-12-23T18:19:19.691Z,105.63
2022-12-23T18:21:47.725Z,127.55
2022-12-23T18:24:14.862Z,111.55
2022-12-23T18:26:43.159Z,130.50
2022-12-23T18:29:10.544Z,108.70
2022-12-23T18:31:45.261Z,105.53
2022-12-23T18:34:19.869Z,106.75
2022-12-23T18:36:48.277Z,102.55
2022-12-23T18:39:15.933Z,131.87
2022-12-23T18:41:43.051Z,108.07
2022-12-23T18:44:23.316Z,107.57
2022-12-23T18:46:50.879Z,119.43
2022-12-23T18:49:18.424Z,138.30
2022-12-23T18:51:46.026Z,91.55
2022-12-23T18:54:17.252Z,98.37
2022-12-23T18:56:44.520Z,85.07
2022-12-23T18:59:27.375Z,97.62
2022-12-23T19:01:57.549Z,91.05
2022-12-23T19:04:25.900Z,80.90
2022-12-23T19:06:55.077Z,72.95
2022-12-23T19:09:24.596Z,70.37
2022-12-23T19:11:52.894Z,86.30
2022-12-23T19:14:20.148Z,65.50
2022-12-23T19:16:51.684Z,83.43
2022-12-23T19:19:19.919Z,66.25
2022-12-23T19:21:47.414Z,72.20
2022-12-23T19:24:14.481Z,63.03
2022-12-23T19:26:41.666Z,74.10
2022-12-23T19:29:09.293Z,68.50
2022-12-23T19:31:36.369Z,145.00
2022-12-23T19:34:12.729Z,78.62
2022-12-23T19:36:42.292Z,98.05
2022-12-23T19:39:16.143Z,69.32
2022-12-23T19:41:44.682Z,88.95
2022-12-23T19:44:11.799Z,110.45
2022-12-23T19:46:38.880Z,67.85
2022-12-23T19:49:06.283Z,89.60
2022-12-23T19:51:33.364Z,84.62
2022-12-23T19:54:00.488Z,79.22
2022-12-23T19:56:29.395Z,86.00
2022-12-23T19:58:56.477Z,71.05
2022-12-23T20:01:25.548Z,83.70
2022-12-23T20:03:55.127Z,89.87
2022-12-23T20:06:28.243Z,107.55
2022-12-23T20:09:00.259Z,70.70
2022-12-23T20:11:30.660Z,91.65
2022-12-23T20:13:59.368Z,98.97
2022-12-23T20:16:27.280Z,100.43
2022-12-23T20:18:54.996Z,69.32
2022-12-23T20:21:22.901Z,81.90
2022-12-23T20:23:50.392Z,76.70
2022-12-23T20:26:19.040Z,87.75
2022-12-23T20:28:46.875Z,105.70
2022-12-23T20:31:19.924Z,84.40
2022-12-23T20:33:48.410Z,67.07
2022-12-23T20:36:17.301Z,69.37
2022-12-23T20:38:45.654Z,69.30
2022-12-23T20:41:15.506Z,67.12
2022-12-23T20:43:46.035Z,67.22
2022-12-23T20:46:20.637Z,83.75
2022-12-23T20:48:47.826Z,79.45
2022-12-23T20:51:23.798Z,49.58
2022-12-23T20:53:52.708Z,68.75
2022-12-23T20:56:20.630Z,71.95
2022-12-23T20:58:54.907Z,62.33
2022-12-23T21:01:28.195Z,73.62
2022-12-23T21:03:56.570Z,77.53
2022-12-23T21:06:26.983Z,59.60
2022-12-23T21:08:55.821Z,69.20
2022-12-23T21:11:23.467Z,78.32
2022-12-23T21:13:53.403Z,64.32
2022-12-23T21:16:20.650Z,66.60
2022-12-23T21:18:53.282Z,109.75
2022-12-23T21:21:23.614Z,63.33
2022-12-23T21:23:50.726Z,89.28
2022-12-23T21:26:20.392Z,73.65
2022-12-23T21:28:49.536Z,84.37
2022-12-23T21:31:18.822Z,82.88
2022-12-23T21:33:46.908Z,83.28
2022-12-23T21:36:20.253Z,79.70
2022-12-23T21:38:49.105Z,76.63
2022-12-23T21:41:19.842Z,74.15
2022-12-23T21:43:47.756Z,77.30
2022-12-23T21:46:16.921Z,72.62
2022-12-23T21:48:44.728Z,62.35
2022-12-23T21:51:38.975Z,71.07
2022-12-23T21:54:08.067Z,66.28
2022-12-23T21:56:35.610Z,72.07
2022-12-23T21:59:22.211Z,66.62
2022-12-23T22:01:50.976Z,75.10
2022-12-23T22:04:18.726Z,67.85
2022-12-23T22:06:45.853Z,78.35
2022-12-23T22:09:18.116Z,80.12
2022-12-23T22:11:46.117Z,79.82
2022-12-23T22:14:19.243Z,85.38
2022-12-23T22:16:48.038Z,88.32
2022-12-23T22:19:15.328Z,78.43
2022-12-23T22:21:42.792Z,73.87
2022-12-23T22:24:10.956Z,80.55
2022-12-23T22:26:39.584Z,77.00
2022-12-23T22:29:07.406Z,70.30
2022-12-23T22:31:50.544Z,72.72
2022-12-23T22:34:19.745Z,59.17
2022-12-23T22:36:48.019Z,55.53
2022-12-23T22:39:21.189Z,58.10
2022-12-23T22:41:52.388Z,60.40
2022-12-23T22:44:20.277Z,58.00
2022-12-23T22:46:47.803Z,54.15
2022-12-23T22:49:15.892Z,59.55
2022-12-23T22:51:43.741Z,60.33
2022-12-23T22:54:10.949Z,53.85
2022-12-23T22:56:38.351Z,65.30
2022-12-23T22:59:05.553Z,54.28
2022-12-23T23:01:34.970Z,63.70
2022-12-23T23:04:03.512Z,73.93
2022-12-23T23:06:37.736Z,64.65
2022-12-23T23:09:06.938Z,75.30
2022-12-23T23:11:34.343Z,67.60
2022-12-23T23:14:01.668Z,66.78
2022-12-23T23:16:29.535Z,61.90
2022-12-23T23:18:58.663Z,55.28
2022-12-23T23:21:26.480Z,59.45
2022-12-23T23:23:53.846Z,66.75
2022-12-23T23:26:21.449Z,61.70
2022-12-23T23:28:48.655Z,58.15
2022-12-23T23:34:03.116Z,67.28
2022-12-23T23:36:30.548Z,66.12
2022-12-23T23:38:57.654Z,57.00
2022-12-23T23:41:24.864Z,61.72
2022-12-23T23:43:52.397Z,60.08
2022-12-23T23:46:20.017Z,67.87
2022-12-23T23:48:47.532Z,68.40
2022-12-23T23:51:15.055Z,64.53
2022-12-23T23:53:42.221Z,61.88
2022-12-23T23:56:09.683Z,61.67
2022-12-23T23:58:37.536Z,63.78
